sensor_id;sensor_type;location;lat;lon;timestamp;temperature;humidity
6178;DHT22;3122;48.208;11.174;2022-09-19T00:04:40;8.70;1.00
6178;DHT22;3122;48.208;11.174;2022-09-19T00:09:40;8.70;1.00
6178;DHT22;3122;48.208;11.174;2022-09-19T00:14:41;8.70;1.00
6178;DHT22;3122;48.208;11.174;2022-09-19T00:19:42;8.70;1.00
6178;DHT22;3122;48.208;11.174;2022-09-19T00:24:43;8.70;1.00
6178;DHT22;3122;48.208;11.174;2022-09-19T00:29:46;8.50;1.00
6178;DHT22;3122;48.208;11.174;2022-09-19T00:34:49;8.50;1.00
6178;DHT22;3122;48.208;11.174;2022-09-19T00:39:49;8.60;1.00
6178;DHT22;3122;48.208;11.174;2022-09-19T00:45:00;8.50;1.00
6178;DHT22;3122;48.208;11.174;2022-09-19T00:50:05;8.40;1.00
6178;DHT22;3122;48.208;11.174;2022-09-19T00:55:07;8.40;1.00
6178;DHT22;3122;48.208;11.174;2022-09-19T01:00:08;8.40;1.00
6178;DHT22;3122;48.208;11.174;2022-09-19T01:05:10;8.40;1.00
6178;DHT22;3122;48.208;11.174;2022-09-19T01:26:13;8.20;1.00
6178;DHT22;3122;48.208;11.174;2022-09-19T01:31:20;8.20;1.00
6178;DHT22;3122;48.208;11.174;2022-09-19T01:36:25;8.10;1.00
6178;DHT22;3122;48.208;11.174;2022-09-19T01:41:30;8.10;1.00
6178;DHT22;3122;48.208;11.174;2022-09-19T01:57:44;7.90;1.00
6178;DHT22;3122;48.208;11.174;2022-09-19T02:08:00;7.80;1.00
6178;DHT22;3122;48.208;11.174;2022-09-19T02:13:04;7.80;1.00
6178;DHT22;3122;48.208;11.174;2022-09-19T02:18:11;7.80;1.00
6178;DHT22;3122;48.208;11.174;2022-09-19T02:23:22;7.70;1.00
6178;DHT22;3122;48.208;11.174;2022-09-19T02:28:31;7.70;1.00
6178;DHT22;3122;48.208;11.174;2022-09-19T02:33:34;7.70;1.00
6178;DHT22;3122;48.208;11.174;2022-09-19T02:39:01;7.50;1.00
6178;DHT22;3122;48.208;11.174;2022-09-19T02:44:12;7.40;1.00
6178;DHT22;3122;48.208;11.174;2022-09-19T02:49:28;7.30;1.00
6178;DHT22;3122;48.208;11.174;2022-09-19T02:54:33;7.20;1.00
6178;DHT22;3122;48.208;11.174;2022-09-19T02:59:37;7.10;1.00
6178;DHT22;3122;48.208;11.174;2022-09-19T03:04:44;7.10;1.00
6178;DHT22;3122;48.208;11.174;2022-09-19T03:09:52;7.00;1.00
6178;DHT22;3122;48.208;11.174;2022-09-19T03:14:56;7.00;1.00
6178;DHT22;3122;48.208;11.174;2022-09-19T03:19:58;7.00;1.00
6178;DHT22;3122;48.208;11.174;2022-09-19T03:24:59;6.80;1.00
6178;DHT22;3122;48.208;11.174;2022-09-19T03:30:07;6.70;1.00
6178;DHT22;3122;48.208;11.174;2022-09-19T03:35:09;6.70;1.00
6178;DHT22;3122;48.208;11.174;2022-09-19T03:40:10;6.60;1.00
6178;DHT22;3122;48.208;11.174;2022-09-19T03:45:11;6.60;1.00
6178;DHT22;3122;48.208;11.174;2022-09-19T03:50:12;6.60;1.00
6178;DHT22;3122;48.208;11.174;2022-09-19T03:55:13;6.50;1.00
6178;DHT22;3122;48.208;11.174;2022-09-19T04:00:14;6.40;1.00
6178;DHT22;3122;48.208;11.174;2022-09-19T04:05:15;6.40;1.00
6178;DHT22;3122;48.208;11.174;2022-09-19T04:10:16;6.30;1.00
6178;DHT22;3122;48.208;11.174;2022-09-19T04:15:16;6.30;1.00
6178;DHT22;3122;48.208;11.174;2022-09-19T04:20:17;6.30;1.00
6178;DHT22;3122;48.208;11.174;2022-09-19T04:25:18;6.20;1.00
6178;DHT22;3122;48.208;11.174;2022-09-19T04:30:18;6.20;1.00
6178;DHT22;3122;48.208;11.174;2022-09-19T04:35:22;6.10;1.00
6178;DHT22;3122;48.208;11.174;2022-09-19T04:40:23;6.20;1.00
6178;DHT22;3122;48.208;11.174;2022-09-19T04:45:23;6.20;1.00
6178;DHT22;3122;48.208;11.174;2022-09-19T04:50:25;6.20;1.00
6178;DHT22;3122;48.208;11.174;2022-09-19T04:55:25;6.20;1.00
6178;DHT22;3122;48.208;11.174;2022-09-19T05:00:28;6.10;1.00
6178;DHT22;3122;48.208;11.174;2022-09-19T05:05:40;6.10;1.00
6178;DHT22;3122;48.208;11.174;2022-09-19T05:10:51;6.20;1.00
6178;DHT22;3122;48.208;11.174;2022-09-19T05:15:56;6.30;1.00
6178;DHT22;3122;48.208;11.174;2022-09-19T05:20:56;6.40;1.00
6178;DHT22;3122;48.208;11.174;2022-09-19T05:26:08;6.40;1.00
6178;DHT22;3122;48.208;11.174;2022-09-19T05:31:09;6.40;1.00
6178;DHT22;3122;48.208;11.174;2022-09-19T05:36:10;6.50;1.00
6178;DHT22;3122;48.208;11.174;2022-09-19T05:41:10;6.60;1.00
6178;DHT22;3122;48.208;11.174;2022-09-19T05:46:11;6.70;1.00
6178;DHT22;3122;48.208;11.174;2022-09-19T05:51:12;6.70;1.00
6178;DHT22;3122;48.208;11.174;2022-09-19T05:56:12;6.80;1.00
6178;DHT22;3122;48.208;11.174;2022-09-19T06:01:13;6.90;1.00
6178;DHT22;3122;48.208;11.174;2022-09-19T06:06:16;6.90;1.00
6178;DHT22;3122;48.208;11.174;2022-09-19T06:11:19;7.00;1.00
6178;DHT22;3122;48.208;11.174;2022-09-19T06:16:19;7.10;1.00
6178;DHT22;3122;48.208;11.174;2022-09-19T06:21:20;7.20;1.00
6178;DHT22;3122;48.208;11.174;2022-09-19T06:26:21;7.10;1.00
6178;DHT22;3122;48.208;11.174;2022-09-19T06:31:22;7.20;1.00
6178;DHT22;3122;48.208;11.174;2022-09-19T06:36:22;7.20;1.00
6178;DHT22;3122;48.208;11.174;2022-09-19T06:41:23;7.20;1.00
6178;DHT22;3122;48.208;11.174;2022-09-19T06:46:24;7.20;1.00
6178;DHT22;3122;48.208;11.174;2022-09-19T06:51:25;7.30;1.00
6178;DHT22;3122;48.208;11.174;2022-09-19T06:56:27;7.40;1.00
6178;DHT22;3122;48.208;11.174;2022-09-19T07:01:28;7.50;1.00
6178;DHT22;3122;48.208;11.174;2022-09-19T07:06:31;7.70;1.00
6178;DHT22;3122;48.208;11.174;2022-09-19T07:11:35;7.60;1.00
6178;DHT22;3122;48.208;11.174;2022-09-19T07:16:36;7.60;1.00
6178;DHT22;3122;48.208;11.174;2022-09-19T07:21:37;7.60;1.00
6178;DHT22;3122;48.208;11.174;2022-09-19T07:26:38;7.70;1.00
6178;DHT22;3122;48.208;11.174;2022-09-19T07:31:39;7.80;1.00
6178;DHT22;3122;48.208;11.174;2022-09-19T07:36:39;7.80;1.00
6178;DHT22;3122;48.208;11.174;2022-09-19T07:41:40;7.90;1.00
6178;DHT22;3122;48.208;11.174;2022-09-19T07:46:41;7.90;1.00
6178;DHT22;3122;48.208;11.174;2022-09-19T07:52:02;7.90;1.00
6178;DHT22;3122;48.208;11.174;2022-09-19T07:57:03;8.00;1.00
6178;DHT22;3122;48.208;11.174;2022-09-19T08:02:05;8.00;1.00
6178;DHT22;3122;48.208;11.174;2022-09-19T08:07:07;8.10;1.00
6178;DHT22;3122;48.208;11.174;2022-09-19T08:12:08;8.20;1.00
6178;DHT22;3122;48.208;11.174;2022-09-19T08:17:12;8.20;1.00
6178;DHT22;3122;48.208;11.174;2022-09-19T08:22:13;8.40;1.00
6178;DHT22;3122;48.208;11.174;2022-09-19T08:27:13;8.30;1.00
6178;DHT22;3122;48.208;11.174;2022-09-19T08:32:14;8.40;1.00
6178;DHT22;3122;48.208;11.174;2022-09-19T08:37:15;8.50;1.00
6178;DHT22;3122;48.208;11.174;2022-09-19T08:42:22;8.60;1.00
6178;DHT22;3122;48.208;11.174;2022-09-19T08:47:31;8.50;1.00
6178;DHT22;3122;48.208;11.174;2022-09-19T08:52:46;8.60;1.00
6178;DHT22;3122;48.208;11.174;2022-09-19T08:58:13;8.50;1.00
6178;DHT22;3122;48.208;11.174;2022-09-19T09:03:24;8.70;1.00
6178;DHT22;3122;48.208;11.174;2022-09-19T09:13:52;8.70;1.00
6178;DHT22;3122;48.208;11.174;2022-09-19T09:24:40;9.00;1.00
6178;DHT22;3122;48.208;11.174;2022-09-19T09:29:47;9.10;1.00
6178;DHT22;3122;48.208;11.174;2022-09-19T09:34:58;9.10;1.00
6178;DHT22;3122;48.208;11.174;2022-09-19T09:40:12;9.20;1.00
6178;DHT22;3122;48.208;11.174;2022-09-19T09:45:44;9.40;1.00
6178;DHT22;3122;48.208;11.174;2022-09-19T10:01:43;9.70;1.00
6178;DHT22;3122;48.208;11.174;2022-09-19T10:07:24;9.80;1.00
6178;DHT22;3122;48.208;11.174;2022-09-19T10:12:42;10.00;1.00
6178;DHT22;3122;48.208;11.174;2022-09-19T10:17:53;9.90;1.00
6178;DHT22;3122;48.208;11.174;2022-09-19T10:22:55;10.00;1.00
6178;DHT22;3122;48.208;11.174;2022-09-19T10:27:56;10.20;1.00
6178;DHT22;3122;48.208;11.174;2022-09-19T10:33:23;10.30;1.00
6178;DHT22;3122;48.208;11.174;2022-09-19T10:38:25;10.50;1.00
6178;DHT22;3122;48.208;11.174;2022-09-19T10:43:33;10.70;1.00
6178;DHT22;3122;48.208;11.174;2022-09-19T10:48:38;10.90;1.00
6178;DHT22;3122;48.208;11.174;2022-09-19T10:53:43;10.90;1.00
6178;DHT22;3122;48.208;11.174;2022-09-19T10:58:45;10.90;1.00
6178;DHT22;3122;48.208;11.174;2022-09-19T11:04:27;10.90;1.00
6178;DHT22;3122;48.208;11.174;2022-09-19T11:09:32;10.90;1.00
6178;DHT22;3122;48.208;11.174;2022-09-19T11:14:36;10.80;1.00
6178;DHT22;3122;48.208;11.174;2022-09-19T11:30:12;11.30;1.00
6178;DHT22;3122;48.208;11.174;2022-09-19T11:35:31;11.40;1.00
6178;DHT22;3122;48.208;11.174;2022-09-19T11:41:36;11.80;1.00
6178;DHT22;3122;48.208;11.174;2022-09-19T11:46:47;12.30;1.00
6178;DHT22;3122;48.208;11.174;2022-09-19T11:57:45;11.80;1.00
6178;DHT22;3122;48.208;11.174;2022-09-19T12:03:05;11.70;1.00
6178;DHT22;3122;48.208;11.174;2022-09-19T12:08:28;11.50;1.00
6178;DHT22;3122;48.208;11.174;2022-09-19T12:13:40;11.50;1.00
6178;DHT22;3122;48.208;11.174;2022-09-19T12:18:46;11.70;1.00
6178;DHT22;3122;48.208;11.174;2022-09-19T12:23:54;11.60;1.00
6178;DHT22;3122;48.208;11.174;2022-09-19T12:29:27;11.70;1.00
6178;DHT22;3122;48.208;11.174;2022-09-19T12:34:43;11.70;1.00
6178;DHT22;3122;48.208;11.174;2022-09-19T12:50:29;12.00;1.00
6178;DHT22;3122;48.208;11.174;2022-09-19T13:00:54;11.70;1.00
6178;DHT22;3122;48.208;11.174;2022-09-19T13:06:25;11.60;1.00
6178;DHT22;3122;48.208;11.174;2022-09-19T13:11:57;11.40;1.00
6178;DHT22;3122;48.208;11.174;2022-09-19T13:17:01;11.50;1.00
6178;DHT22;3122;48.208;11.174;2022-09-19T13:22:21;11.50;1.00
6178;DHT22;3122;48.208;11.174;2022-09-19T13:27:43;11.60;1.00
6178;DHT22;3122;48.208;11.174;2022-09-19T13:32:54;11.70;1.00
6178;DHT22;3122;48.208;11.174;2022-09-19T13:37:59;11.80;1.00
6178;DHT22;3122;48.208;11.174;2022-09-19T13:48:55;11.80;1.00
6178;DHT22;3122;48.208;11.174;2022-09-19T13:59:30;12.00;1.00
6178;DHT22;3122;48.208;11.174;2022-09-19T14:04:59;11.90;1.00
6178;DHT22;3122;48.208;11.174;2022-09-19T14:10:17;12.10;1.00
6178;DHT22;3122;48.208;11.174;2022-09-19T14:15:44;12.10;1.00
6178;DHT22;3122;48.208;11.174;2022-09-19T14:20:57;12.30;1.00
6178;DHT22;3122;48.208;11.174;2022-09-19T14:31:09;12.40;1.00
6178;DHT22;3122;48.208;11.174;2022-09-19T14:41:59;12.50;1.00
6178;DHT22;3122;48.208;11.174;2022-09-19T14:47:19;12.70;1.00
6178;DHT22;3122;48.208;11.174;2022-09-19T14:52:26;12.70;1.00
6178;DHT22;3122;48.208;11.174;2022-09-19T14:57:28;12.70;1.00
6178;DHT22;3122;48.208;11.174;2022-09-19T15:02:34;12.50;1.00
6178;DHT22;3122;48.208;11.174;2022-09-19T15:07:40;12.20;1.00
6178;DHT22;3122;48.208;11.174;2022-09-19T15:12:42;12.30;1.00
6178;DHT22;3122;48.208;11.174;2022-09-19T15:17:43;12.20;1.00
6178;DHT22;3122;48.208;11.174;2022-09-19T15:22:55;12.10;1.00
6178;DHT22;3122;48.208;11.174;2022-09-19T15:27:59;11.70;1.00
6178;DHT22;3122;48.208;11.174;2022-09-19T15:33:05;11.70;1.00
6178;DHT22;3122;48.208;11.174;2022-09-19T15:43:27;11.50;1.00
6178;DHT22;3122;48.208;11.174;2022-09-19T15:48:32;11.60;1.00
6178;DHT22;3122;48.208;11.174;2022-09-19T15:53:38;12.00;1.00
6178;DHT22;3122;48.208;11.174;2022-09-19T15:58:43;12.20;1.00
6178;DHT22;3122;48.208;11.174;2022-09-19T16:04:10;12.40;1.00
6178;DHT22;3122;48.208;11.174;2022-09-19T16:09:11;12.60;1.00
6178;DHT22;3122;48.208;11.174;2022-09-19T16:14:25;12.40;1.00
6178;DHT22;3122;48.208;11.174;2022-09-19T16:24:42;12.30;1.00
6178;DHT22;3122;48.208;11.174;2022-09-19T16:29:45;12.20;1.00
6178;DHT22;3122;48.208;11.174;2022-09-19T16:34:50;12.00;1.00
6178;DHT22;3122;48.208;11.174;2022-09-19T16:39:55;12.00;1.00
6178;DHT22;3122;48.208;11.174;2022-09-19T16:45:12;11.90;1.00
6178;DHT22;3122;48.208;11.174;2022-09-19T16:50:17;11.80;1.00
6178;DHT22;3122;48.208;11.174;2022-09-19T16:55:36;11.70;1.00
6178;DHT22;3122;48.208;11.174;2022-09-19T17:00:37;11.50;1.00
6178;DHT22;3122;48.208;11.174;2022-09-19T17:05:38;11.50;1.00
6178;DHT22;3122;48.208;11.174;2022-09-19T17:10:40;11.30;1.00
6178;DHT22;3122;48.208;11.174;2022-09-19T17:15:45;11.10;1.00
6178;DHT22;3122;48.208;11.174;2022-09-19T17:20:47;11.00;1.00
6178;DHT22;3122;48.208;11.174;2022-09-19T17:25:49;10.90;1.00
6178;DHT22;3122;48.208;11.174;2022-09-19T17:30:56;10.90;1.00
6178;DHT22;3122;48.208;11.174;2022-09-19T17:35:58;10.70;1.00
6178;DHT22;3122;48.208;11.174;2022-09-19T17:41:00;10.70;1.00
6178;DHT22;3122;48.208;11.174;2022-09-19T17:46:01;10.50;1.00
6178;DHT22;3122;48.208;11.174;2022-09-19T17:51:13;10.50;1.00
6178;DHT22;3122;48.208;11.174;2022-09-19T17:56:20;10.30;1.00
6178;DHT22;3122;48.208;11.174;2022-09-19T18:01:23;10.20;1.00
6178;DHT22;3122;48.208;11.174;2022-09-19T18:06:42;10.00;1.00
6178;DHT22;3122;48.208;11.174;2022-09-19T18:11:42;10.00;1.00
6178;DHT22;3122;48.208;11.174;2022-09-19T18:16:43;9.90;1.00
6178;DHT22;3122;48.208;11.174;2022-09-19T18:21:44;9.80;1.00
6178;DHT22;3122;48.208;11.174;2022-09-19T18:26:46;9.70;1.00
6178;DHT22;3122;48.208;11.174;2022-09-19T18:31:47;9.70;1.00
6178;DHT22;3122;48.208;11.174;2022-09-19T18:36:47;9.60;1.00
6178;DHT22;3122;48.208;11.174;2022-09-19T18:41:48;9.50;1.00
6178;DHT22;3122;48.208;11.174;2022-09-19T18:46:49;9.60;1.00
6178;DHT22;3122;48.208;11.174;2022-09-19T18:51:49;9.70;1.00
6178;DHT22;3122;48.208;11.174;2022-09-19T18:56:50;9.60;1.00
6178;DHT22;3122;48.208;11.174;2022-09-19T19:01:50;9.80;1.00
6178;DHT22;3122;48.208;11.174;2022-09-19T19:06:51;9.90;1.00
6178;DHT22;3122;48.208;11.174;2022-09-19T19:11:52;9.90;1.00
6178;DHT22;3122;48.208;11.174;2022-09-19T19:16:53;9.80;1.00
6178;DHT22;3122;48.208;11.174;2022-09-19T19:21:54;9.90;1.00
6178;DHT22;3122;48.208;11.174;2022-09-19T19:26:55;9.80;1.00
6178;DHT22;3122;48.208;11.174;2022-09-19T19:31:56;9.70;1.00
6178;DHT22;3122;48.208;11.174;2022-09-19T19:36:56;9.60;1.00
6178;DHT22;3122;48.208;11.174;2022-09-19T19:41:57;9.70;1.00
6178;DHT22;3122;48.208;11.174;2022-09-19T19:46:57;9.60;1.00
6178;DHT22;3122;48.208;11.174;2022-09-19T19:51:58;9.40;1.00
6178;DHT22;3122;48.208;11.174;2022-09-19T19:57:00;9.40;1.00
6178;DHT22;3122;48.208;11.174;2022-09-19T20:02:00;9.40;1.00
6178;DHT22;3122;48.208;11.174;2022-09-19T20:07:01;9.40;1.00
6178;DHT22;3122;48.208;11.174;2022-09-19T20:12:02;9.40;1.00
6178;DHT22;3122;48.208;11.174;2022-09-19T20:17:02;9.50;1.00
6178;DHT22;3122;48.208;11.174;2022-09-19T20:22:03;9.40;1.00
6178;DHT22;3122;48.208;11.174;2022-09-19T20:27:04;9.50;1.00
6178;DHT22;3122;48.208;11.174;2022-09-19T20:32:05;9.50;1.00
6178;DHT22;3122;48.208;11.174;2022-09-19T20:37:05;9.50;1.00
6178;DHT22;3122;48.208;11.174;2022-09-19T20:42:06;9.40;1.00
6178;DHT22;3122;48.208;11.174;2022-09-19T20:47:06;9.50;1.00
6178;DHT22;3122;48.208;11.174;2022-09-19T20:52:07;9.50;1.00
6178;DHT22;3122;48.208;11.174;2022-09-19T20:57:08;9.50;1.00
6178;DHT22;3122;48.208;11.174;2022-09-19T21:02:09;9.50;1.00
6178;DHT22;3122;48.208;11.174;2022-09-19T21:07:09;9.50;1.00
6178;DHT22;3122;48.208;11.174;2022-09-19T21:12:10;9.50;1.00
6178;DHT22;3122;48.208;11.174;2022-09-19T21:17:11;9.50;1.00
6178;DHT22;3122;48.208;11.174;2022-09-19T21:22:12;9.50;1.00
6178;DHT22;3122;48.208;11.174;2022-09-19T21:27:12;9.60;1.00
6178;DHT22;3122;48.208;11.174;2022-09-19T21:32:13;9.40;1.00
6178;DHT22;3122;48.208;11.174;2022-09-19T21:37:14;9.40;1.00
6178;DHT22;3122;48.208;11.174;2022-09-19T21:42:14;9.40;1.00
6178;DHT22;3122;48.208;11.174;2022-09-19T21:47:15;9.40;1.00
6178;DHT22;3122;48.208;11.174;2022-09-19T21:52:15;9.30;1.00
6178;DHT22;3122;48.208;11.174;2022-09-19T21:57:16;9.20;1.00
6178;DHT22;3122;48.208;11.174;2022-09-19T22:02:16;9.10;1.00
6178;DHT22;3122;48.208;11.174;2022-09-19T22:07:17;8.90;1.00
6178;DHT22;3122;48.208;11.174;2022-09-19T22:12:19;8.80;1.00
6178;DHT22;3122;48.208;11.174;2022-09-19T22:17:19;8.80;1.00
6178;DHT22;3122;48.208;11.174;2022-09-19T22:22:20;8.80;1.00
6178;DHT22;3122;48.208;11.174;2022-09-19T22:27:22;8.80;1.00
6178;DHT22;3122;48.208;11.174;2022-09-19T22:32:23;8.80;1.00
6178;DHT22;3122;48.208;11.174;2022-09-19T22:37:23;8.70;1.00
6178;DHT22;3122;48.208;11.174;2022-09-19T22:42:24;8.70;1.00
6178;DHT22;3122;48.208;11.174;2022-09-19T22:47:24;8.50;1.00
6178;DHT22;3122;48.208;11.174;2022-09-19T22:52:25;8.50;1.00
6178;DHT22;3122;48.208;11.174;2022-09-19T22:57:26;8.50;1.00
6178;DHT22;3122;48.208;11.174;2022-09-19T23:02:26;8.50;1.00
6178;DHT22;3122;48.208;11.174;2022-09-19T23:07:27;8.50;1.00
6178;DHT22;3122;48.208;11.174;2022-09-19T23:12:28;8.50;1.00
6178;DHT22;3122;48.208;11.174;2022-09-19T23:17:29;8.50;1.00
6178;DHT22;3122;48.208;11.174;2022-09-19T23:22:29;8.50;1.00
6178;DHT22;3122;48.208;11.174;2022-09-19T23:27:30;8.50;1.00
6178;DHT22;3122;48.208;11.174;2022-09-19T23:32:31;8.50;1.00
6178;DHT22;3122;48.208;11.174;2022-09-19T23:37:31;8.40;1.00
6178;DHT22;3122;48.208;11.174;2022-09-19T23:42:32;8.40;1.00
6178;DHT22;3122;48.208;11.174;2022-09-19T23:47:32;8.40;1.00
6178;DHT22;3122;48.208;11.174;2022-09-19T23:52:33;8.30;1.00
6178;DHT22;3122;48.208;11.174;2022-09-19T23:57:33;8.30;1.00
